Time;durP1;ratioP1;P1;durP2;ratioP2;P2;SDS_P1;SDS_P2;PMS_P1;PMS_P2;Temp;Humidity;BMP_temperature;BMP_pressure;BME280_temperature;BME280_humidity;BME280_pressure;Samples;Min_cycle;Max_cycle;Signal;HPM_P1;HPM_P2
2023/01/18 00:02:21;;;;;;;21.40;15.55;;;2.10;99.90;;;;;;5020305;28;20029;-47
2023/01/18 00:05:08;;;;;;;20.10;14.88;;;2.10;99.90;;;;;;5010404;28;20030;-55
2023/01/18 00:07:59;;;;;;;23.60;16.38;;;2.10;99.90;;;;;;5010016;28;20053;-53
2023/01/18 00:10:45;;;;;;;19.95;15.45;;;2.10;99.90;;;;;;5008957;28;20037;-51
2023/01/18 00:13:32;;;;;;;24.25;14.90;;;2.20;99.90;;;;;;4994997;28;20129;-51
2023/01/18 00:16:20;;;;;;;22.08;14.18;;;2.10;99.90;;;;;;5026738;28;20024;-50
2023/01/18 00:19:11;;;;;;;20.63;14.10;;;2.00;99.90;;;;;;4999929;28;20041;-51
2023/01/18 00:21:57;;;;;;;20.15;14.00;;;1.90;99.90;;;;;;5013989;28;20048;-47
2023/01/18 00:24:43;;;;;;;21.83;14.13;;;1.90;99.90;;;;;;5013229;28;20111;-47
2023/01/18 00:27:29;;;;;;;19.02;12.63;;;1.90;99.90;;;;;;5005528;28;20422;-51
2023/01/18 00:30:19;;;;;;;20.23;12.32;;;1.90;99.90;;;;;;5014833;28;20038;-50
2023/01/18 00:33:05;;;;;;;23.55;14.00;;;2.00;99.90;;;;;;5014959;28;20522;-51
2023/01/18 00:36:00;;;;;;;20.27;13.90;;;2.00;99.90;;;;;;5012880;28;20557;-53
2023/01/18 00:38:50;;;;;;;16.88;12.52;;;2.10;99.90;;;;;;5013456;28;20026;-52
2023/01/18 00:43:37;;;;;;;17.70;13.10;;;2.10;99.90;;;;;;5013398;28;20109;-57
2023/01/18 00:44:44;;;;;;;16.13;12.52;;;2.20;99.90;;;;;;5013162;28;20022;-54
2023/01/18 00:47:30;;;;;;;17.23;12.23;;;2.20;99.90;;;;;;4980188;28;20182;-55
2023/01/18 00:50:18;;;;;;;17.20;11.75;;;2.10;99.90;;;;;;5010308;28;20552;-54
2023/01/18 00:53:04;;;;;;;18.50;13.13;;;1.90;99.90;;;;;;5013387;28;20084;-48
2023/01/18 00:55:50;;;;;;;30.90;13.02;;;2.00;99.90;;;;;;4988202;28;20034;-52
2023/01/18 00:58:36;;;;;;;17.40;11.82;;;2.00;99.90;;;;;;4998319;28;20556;-52
2023/01/18 01:01:22;;;;;;;16.42;11.90;;;2.10;99.90;;;;;;5025008;28;20548;-52
2023/01/18 01:07:12;;;;;;;15.90;11.82;;;2.20;99.90;;;;;;5009500;28;20047;-50
2023/01/18 01:09:58;;;;;;;17.08;11.45;;;2.10;99.90;;;;;;5013646;28;20038;-50
2023/01/18 01:28:07;;;;;;;16.50;11.40;;;2.20;99.90;;;;;;5011867;28;20034;-48
2023/01/18 01:30:57;;;;;;;16.45;11.30;;;2.20;99.90;;;;;;5011303;28;20048;-49
2023/01/18 01:33:44;;;;;;;16.02;12.15;;;2.20;99.90;;;;;;5015996;28;20425;-50
2023/01/18 01:36:30;;;;;;;17.13;11.73;;;2.30;99.90;;;;;;4997381;28;20045;-50
2023/01/18 01:39:16;;;;;;;16.85;11.90;;;2.30;99.90;;;;;;5010354;28;20032;-47
2023/01/18 01:42:02;;;;;;;16.95;11.43;;;2.30;99.90;;;;;;5010764;28;20488;-50
2023/01/18 01:44:50;;;;;;;16.05;11.40;;;2.40;99.90;;;;;;5010358;28;20153;-49
2023/01/18 01:47:40;;;;;;;17.27;11.93;;;2.40;99.90;;;;;;5010309;28;20033;-52
2023/01/18 01:50:36;;;;;;;14.95;11.90;;;2.30;99.90;;;;;;5012733;28;20034;-48
2023/01/18 01:53:23;;;;;;;15.10;11.82;;;2.30;99.90;;;;;;4998336;28;20112;-48
2023/01/18 01:56:10;;;;;;;15.55;10.98;;;2.30;99.90;;;;;;5007334;28;20033;-52
2023/01/18 01:58:59;;;;;;;15.90;11.70;;;2.30;99.90;;;;;;5012874;28;20049;-49
2023/01/18 02:01:45;;;;;;;17.55;11.68;;;2.10;99.90;;;;;;5010416;28;20025;-51
2023/01/18 02:04:32;;;;;;;17.45;12.20;;;2.10;99.90;;;;;;4995760;28;20105;-51
2023/01/18 02:07:25;;;;;;;18.33;11.75;;;2.00;99.90;;;;;;5009202;28;20122;-50
2023/01/18 02:10:11;;;;;;;15.27;10.13;;;2.00;99.90;;;;;;5008872;28;20459;-48
2023/01/18 02:12:58;;;;;;;14.32;11.07;;;2.10;99.90;;;;;;5010374;28;20038;-48
2023/01/18 02:16:08;;;;;;;13.07;10.02;;;2.00;99.90;;;;;;5010182;28;20029;-50
2023/01/18 02:19:18;;;;;;;14.32;9.95;;;1.90;99.90;;;;;;5009464;28;20034;-52
2023/01/18 02:22:27;;;;;;;16.25;10.63;;;1.90;99.90;;;;;;5016162;28;20121;-52
2023/01/18 02:25:25;;;;;;;12.23;9.82;;;1.80;99.90;;;;;;5015971;28;20026;-50
2023/01/18 02:28:37;;;;;;;16.48;10.45;;;1.80;99.90;;;;;;5015281;28;20037;-49
2023/01/18 02:31:29;;;;;;;12.50;10.05;;;1.90;99.90;;;;;;4999581;28;20044;-54
2023/01/18 02:34:44;;;;;;;16.08;10.70;;;1.90;99.90;;;;;;5010629;28;20029;-55
2023/01/18 02:37:52;;;;;;;16.00;11.53;;;2.00;99.90;;;;;;5009500;28;20029;-54
2023/01/18 02:41:09;;;;;;;14.90;10.77;;;2.00;99.90;;;;;;5011669;28;20057;-50
2023/01/18 02:47:03;;;;;;;16.30;10.70;;;2.10;99.90;;;;;;5010983;28;20465;-53
2023/01/18 02:49:49;;;;;;;16.15;10.48;;;2.10;99.90;;;;;;5010089;28;20045;-49
2023/01/18 02:52:46;;;;;;;15.55;10.93;;;2.10;99.90;;;;;;5010218;28;20026;-52
2023/01/18 02:55:52;;;;;;;14.48;10.60;;;2.10;99.90;;;;;;5017479;28;20041;-48
2023/01/18 02:59:01;;;;;;;13.68;9.82;;;2.10;99.90;;;;;;5016581;28;20406;-48
2023/01/18 03:01:53;;;;;;;14.00;9.50;;;2.20;99.90;;;;;;5018511;28;20552;-51
2023/01/18 03:04:53;;;;;;;15.88;10.23;;;2.20;99.90;;;;;;5014314;28;20033;-55
2023/01/18 03:08:03;;;;;;;14.73;9.65;;;2.20;99.90;;;;;;5009910;28;20068;-53
2023/01/18 03:11:06;;;;;;;15.38;10.18;;;2.30;99.90;;;;;;5011168;28;20040;-50
2023/01/18 03:14:10;;;;;;;13.45;10.32;;;2.40;99.90;;;;;;5011164;28;20026;-51
2023/01/18 03:17:22;;;;;;;14.23;12.10;;;2.40;99.90;;;;;;4991344;28;20513;-52
2023/01/18 03:20:13;;;;;;;16.05;11.05;;;2.30;99.90;;;;;;5010738;28;20097;-49
2023/01/18 03:26:15;;;;;;;13.82;10.82;;;2.30;99.90;;;;;;5009051;28;20026;-53
2023/01/18 03:35:26;;;;;;;15.82;11.38;;;2.10;99.90;;;;;;5005479;28;20045;-51
2023/01/18 03:38:12;;;;;;;16.52;10.80;;;2.10;99.90;;;;;;5007718;28;20105;-52
2023/01/18 03:41:02;;;;;;;18.02;11.20;;;2.10;99.90;;;;;;5009511;28;20034;-50
2023/01/18 03:43:50;;;;;;;16.33;10.75;;;2.20;99.90;;;;;;4996365;28;20034;-49
2023/01/18 03:46:38;;;;;;;20.60;12.02;;;2.20;99.90;;;;;;5019556;28;20018;-49
2023/01/18 03:49:26;;;;;;;15.15;10.55;;;2.20;99.90;;;;;;5009772;28;20032;-49
2023/01/18 03:52:30;;;;;;;18.30;10.68;;;2.20;99.90;;;;;;5033403;28;20036;-52
2023/01/18 03:55:33;;;;;;;14.48;10.77;;;2.20;99.90;;;;;;5028666;28;20022;-49
2023/01/18 03:58:27;;;;;;;14.43;10.55;;;2.20;99.90;;;;;;4994256;28;20022;-50
2023/01/18 04:01:13;;;;;;;13.93;9.10;;;2.10;99.90;;;;;;5005865;28;20024;-51
2023/01/18 04:03:59;;;;;;;14.23;9.38;;;2.20;99.90;;;;;;5019997;28;20025;-52
2023/01/18 04:06:45;;;;;;;15.07;9.35;;;2.10;99.90;;;;;;5032778;28;20025;-50
2023/01/18 04:09:31;;;;;;;15.98;9.50;;;2.10;99.90;;;;;;5022624;28;20033;-53
2023/01/18 04:12:17;;;;;;;13.52;8.82;;;2.10;99.90;;;;;;5020079;28;20057;-49
2023/01/18 04:15:04;;;;;;;13.70;9.70;;;2.00;99.90;;;;;;5012797;28;20061;-50
2023/01/18 04:17:52;;;;;;;15.88;9.02;;;2.00;99.90;;;;;;4997087;28;20042;-48
2023/01/18 04:20:38;;;;;;;14.77;8.02;;;2.10;99.90;;;;;;5014379;28;20041;-51
2023/01/18 04:23:24;;;;;;;12.82;8.88;;;2.10;99.90;;;;;;5013674;28;20033;-51
2023/01/18 04:26:12;;;;;;;9.25;7.57;;;2.10;99.90;;;;;;5013406;28;20022;-51
2023/01/18 04:28:58;;;;;;;11.68;7.35;;;2.00;99.90;;;;;;5012493;28;20049;-51
2023/01/18 04:31:44;;;;;;;10.10;7.47;;;2.00;99.90;;;;;;5012680;28;20034;-55
2023/01/18 04:34:31;;;;;;;12.30;8.00;;;2.00;99.90;;;;;;5012046;28;20065;-50
2023/01/18 04:37:16;;;;;;;12.80;7.95;;;2.00;99.90;;;;;;4999847;28;20057;-47
2023/01/18 04:40:07;;;;;;;12.63;7.90;;;2.10;99.90;;;;;;5014318;28;20030;-51
2023/01/18 04:42:53;;;;;;;14.63;7.13;;;2.10;99.90;;;;;;4999809;28;20022;-50
2023/01/18 04:45:39;;;;;;;13.75;7.82;;;2.10;99.90;;;;;;5013410;28;20022;-48
2023/01/18 04:48:26;;;;;;;12.88;7.75;;;2.10;99.90;;;;;;5012804;28;20450;-52
2023/01/18 04:51:13;;;;;;;9.98;6.95;;;2.10;99.90;;;;;;5013335;28;20052;-51
2023/01/18 04:53:59;;;;;;;12.68;7.38;;;2.10;99.90;;;;;;5012475;28;20049;-50
2023/01/18 04:56:45;;;;;;;29.60;17.00;;;2.00;99.90;;;;;;5011287;28;20406;-53
2023/01/18 04:59:31;;;;;;;11.73;7.47;;;2.00;99.90;;;;;;5011015;28;20030;-53
2023/01/18 05:02:16;;;;;;;9.35;6.95;;;2.10;99.90;;;;;;5013371;28;20438;-54
2023/01/18 05:05:03;;;;;;;13.93;8.73;;;2.00;99.90;;;;;;5012896;28;20038;-50
2023/01/18 05:07:49;;;;;;;9.57;7.25;;;2.00;99.90;;;;;;4993232;28;20118;-52
2023/01/18 05:10:35;;;;;;;15.77;8.25;;;1.90;99.90;;;;;;4995568;28;20050;-55
2023/01/18 05:13:21;;;;;;;12.35;7.35;;;2.10;99.90;;;;;;5002116;28;20486;-56
2023/01/18 05:16:16;;;;;;;12.90;7.50;;;2.00;99.90;;;;;;5010930;28;20425;-57
2023/01/18 05:19:02;;;;;;;13.75;7.38;;;2.00;99.90;;;;;;5012848;28;20410;-56
2023/01/18 05:21:47;;;;;;;11.07;7.32;;;2.00;99.90;;;;;;5011898;28;20045;-55
2023/01/18 05:24:33;;;;;;;9.68;6.78;;;2.10;99.90;;;;;;5012425;28;20041;-54
2023/01/18 05:27:19;;;;;;;11.80;6.97;;;2.10;99.90;;;;;;5011679;28;20109;-55
2023/01/18 05:30:06;;;;;;;9.07;6.45;;;2.00;99.90;;;;;;5011383;28;20030;-56
2023/01/18 05:32:52;;;;;;;12.45;6.90;;;2.00;99.90;;;;;;5012975;28;20026;-53
2023/01/18 05:35:38;;;;;;;10.93;6.68;;;2.00;99.90;;;;;;5012203;28;20042;-54
2023/01/18 05:38:24;;;;;;;7.32;5.68;;;2.00;99.90;;;;;;5011666;28;20045;-57
2023/01/18 05:41:09;;;;;;;10.52;6.95;;;2.00;99.90;;;;;;5013266;28;20550;-56
2023/01/18 05:43:55;;;;;;;11.45;6.47;;;1.80;99.90;;;;;;4999419;28;20026;-52
2023/01/18 05:46:41;;;;;;;10.60;6.53;;;1.80;99.90;;;;;;4982014;28;20022;-53
2023/01/18 05:49:28;;;;;;;12.23;7.32;;;1.80;99.90;;;;;;5012169;28;20034;-50
2023/01/18 05:52:15;;;;;;;12.18;6.22;;;1.80;99.90;;;;;;5012166;28;20101;-57
2023/01/18 05:55:01;;;;;;;9.32;6.70;;;1.80;99.90;;;;;;5012435;28;20553;-56
2023/01/18 05:57:47;;;;;;;12.98;7.00;;;1.70;99.90;;;;;;5011305;28;20079;-48
2023/01/18 06:00:33;;;;;;;12.65;6.60;;;1.60;99.90;;;;;;4997994;28;20026;-49
2023/01/18 06:03:20;;;;;;;9.52;7.03;;;1.60;99.90;;;;;;5011497;28;20593;-52
2023/01/18 06:06:06;;;;;;;9.38;7.05;;;1.60;99.90;;;;;;5011634;28;20414;-52
2023/01/18 06:08:52;;;;;;;11.18;6.95;;;1.60;99.90;;;;;;5009640;28;20529;-55
2023/01/18 06:11:38;;;;;;;13.20;6.75;;;1.70;99.90;;;;;;5005027;28;20559;-52
2023/01/18 06:14:24;;;;;;;15.20;6.55;;;1.70;99.90;;;;;;5010984;28;20049;-53
2023/01/18 06:17:10;;;;;;;14.93;7.22;;;1.70;99.90;;;;;;5012044;28;20037;-49
2023/01/18 06:19:56;;;;;;;12.20;7.80;;;1.70;99.90;;;;;;5010583;28;20057;-49
2023/01/18 06:22:44;;;;;;;10.30;6.78;;;1.80;99.90;;;;;;5011811;28;20026;-51
2023/01/18 06:25:30;;;;;;;9.65;6.93;;;1.80;99.90;;;;;;4997198;28;20026;-49
2023/01/18 06:28:18;;;;;;;10.20;6.38;;;1.80;99.90;;;;;;5010595;28;20041;-49
2023/01/18 06:31:07;;;;;;;13.30;6.68;;;1.80;99.90;;;;;;5009565;28;20060;-48
2023/01/18 06:33:52;;;;;;;11.48;7.07;;;1.80;99.90;;;;;;4997658;28;20667;-47
2023/01/18 06:36:38;;;;;;;20.73;7.20;;;1.80;99.90;;;;;;5006147;28;20114;-48
2023/01/18 06:39:25;;;;;;;12.32;6.78;;;1.70;99.90;;;;;;5012622;28;20042;-48
2023/01/18 06:42:11;;;;;;;10.02;6.47;;;1.70;99.90;;;;;;5011865;28;20459;-49
2023/01/18 06:44:58;;;;;;;13.18;6.38;;;1.80;99.90;;;;;;5012579;28;20081;-48
2023/01/18 06:47:44;;;;;;;9.98;6.53;;;1.80;99.90;;;;;;5013636;28;20041;-52
2023/01/18 06:50:31;;;;;;;11.18;6.53;;;1.80;99.90;;;;;;5010879;28;20061;-50
2023/01/18 06:53:19;;;;;;;11.93;7.35;;;1.80;99.90;;;;;;4995793;28;20040;-51
2023/01/18 06:56:09;;;;;;;12.57;7.35;;;1.90;99.90;;;;;;5009491;28;20100;-51
2023/01/18 06:58:57;;;;;;;12.77;6.75;;;1.80;99.90;;;;;;5010513;28;20030;-51
2023/01/18 07:01:43;;;;;;;10.80;6.57;;;1.80;99.90;;;;;;5014180;28;20406;-48
2023/01/18 07:04:31;;;;;;;12.05;6.60;;;1.90;99.90;;;;;;5016867;28;20092;-49
2023/01/18 07:07:17;;;;;;;12.27;7.22;;;1.80;99.90;;;;;;5031128;28;20057;-54
2023/01/18 07:10:03;;;;;;;14.70;7.35;;;1.80;99.90;;;;;;5029697;28;20095;-51
2023/01/18 07:12:49;;;;;;;11.63;6.10;;;1.90;99.90;;;;;;5036400;28;20025;-51
2023/01/18 07:15:35;;;;;;;10.60;6.95;;;1.90;99.90;;;;;;5031065;28;20035;-52
2023/01/18 07:18:22;;;;;;;13.13;6.78;;;1.80;99.90;;;;;;4992399;28;20113;-52
2023/01/18 07:21:09;;;;;;;15.52;6.70;;;1.90;99.90;;;;;;4978034;28;20089;-48
2023/01/18 07:23:57;;;;;;;8.25;6.00;;;2.00;99.90;;;;;;4993712;28;20022;-52
2023/01/18 07:26:43;;;;;;;13.98;6.63;;;2.10;99.90;;;;;;4997759;28;20037;-49
2023/01/18 07:29:29;;;;;;;10.88;6.63;;;2.10;99.90;;;;;;4997335;28;20073;-50
2023/01/18 07:32:15;;;;;;;9.77;6.90;;;2.00;99.90;;;;;;4999912;28;20057;-52
2023/01/18 07:35:01;;;;;;;10.32;6.75;;;2.20;99.90;;;;;;5002298;28;20041;-54
2023/01/18 07:37:49;;;;;;;12.25;6.50;;;1.90;99.90;;;;;;5002596;28;20058;-54
2023/01/18 07:40:35;;;;;;;9.93;6.82;;;2.00;99.90;;;;;;5017580;28;20105;-52
2023/01/18 07:43:21;;;;;;;10.43;6.07;;;2.00;99.90;;;;;;5002691;28;20037;-52
2023/01/18 07:46:10;;;;;;;11.30;6.30;;;1.90;99.90;;;;;;5001826;28;20100;-52
2023/01/18 07:48:56;;;;;;;14.48;6.28;;;2.00;99.90;;;;;;5017100;28;20101;-51
2023/01/18 07:51:42;;;;;;;13.23;7.18;;;2.00;99.90;;;;;;5002105;28;20030;-54
2023/01/18 07:54:27;;;;;;;14.77;6.97;;;2.00;99.90;;;;;;5018109;28;20049;-49
2023/01/18 07:57:13;;;;;;;11.57;6.63;;;2.00;99.90;;;;;;5017704;28;20034;-52
2023/01/18 07:59:59;;;;;;;10.68;6.63;;;2.10;99.90;;;;;;5017012;28;20028;-51
2023/01/18 08:02:49;;;;;;;10.63;6.43;;;2.10;99.90;;;;;;5016438;28;20026;-52
2023/01/18 08:05:35;;;;;;;9.07;5.93;;;2.10;99.90;;;;;;5016397;28;20104;-47
2023/01/18 08:08:21;;;;;;;12.15;7.03;;;2.10;99.90;;;;;;5002729;28;20045;-53
2023/01/18 08:11:08;;;;;;;15.07;8.18;;;2.00;99.90;;;;;;5002152;28;20045;-49
2023/01/18 08:13:54;;;;;;;8.70;5.78;;;2.10;99.90;;;;;;5017056;28;20057;-53
2023/01/18 08:16:39;;;;;;;11.75;7.18;;;2.10;99.90;;;;;;5016722;28;20547;-53
2023/01/18 08:19:25;;;;;;;9.60;5.72;;;2.10;99.90;;;;;;5017564;28;20041;-52
2023/01/18 08:22:11;;;;;;;10.45;5.85;;;2.20;99.90;;;;;;5009990;28;20030;-48
2023/01/18 08:24:57;;;;;;;10.77;5.63;;;2.20;99.90;;;;;;4975695;28;20704;-49
2023/01/18 08:27:43;;;;;;;9.45;5.50;;;2.20;99.90;;;;;;5015281;28;20050;-48
2023/01/18 08:30:33;;;;;;;12.68;5.28;;;2.20;99.90;;;;;;5027026;28;20422;-53
2023/01/18 08:33:19;;;;;;;10.98;5.22;;;2.20;99.90;;;;;;5028652;28;20413;-53
2023/01/18 08:36:10;;;;;;;9.18;5.50;;;2.20;99.90;;;;;;4989129;28;20610;-52
2023/01/18 08:38:56;;;;;;;16.63;6.40;;;2.20;99.90;;;;;;5017074;28;20085;-51
2023/01/18 08:41:41;;;;;;;9.30;5.43;;;2.20;99.90;;;;;;5013933;28;20023;-48
2023/01/18 08:44:27;;;;;;;10.13;5.78;;;2.20;99.90;;;;;;5009734;28;20030;-52
2023/01/18 08:47:14;;;;;;;9.35;5.15;;;2.20;99.90;;;;;;5012136;28;20080;-50
2023/01/18 08:50:00;;;;;;;10.05;5.50;;;2.10;99.90;;;;;;5013737;28;20033;-49
2023/01/18 08:52:46;;;;;;;10.10;5.95;;;2.00;99.90;;;;;;5015732;28;20065;-53
2023/01/18 08:55:35;;;;;;;11.20;6.20;;;2.10;99.90;;;;;;5012833;28;20029;-49
2023/01/18 08:58:21;;;;;;;12.82;5.78;;;2.00;99.90;;;;;;5013739;28;20030;-50
2023/01/18 09:01:08;;;;;;;9.32;5.95;;;2.10;99.90;;;;;;4981294;28;20085;-51
2023/01/18 09:03:56;;;;;;;9.27;5.68;;;2.10;99.90;;;;;;4986906;28;20030;-51
2023/01/18 09:06:43;;;;;;;7.93;4.95;;;2.10;99.90;;;;;;4993300;28;20027;-52
2023/01/18 09:09:29;;;;;;;11.57;5.40;;;2.20;99.90;;;;;;4993004;28;20049;-51
2023/01/18 09:12:15;;;;;;;8.77;5.90;;;2.20;99.90;;;;;;5009931;28;20034;-49
2023/01/18 09:15:01;;;;;;;9.15;5.13;;;2.40;99.90;;;;;;5023131;28;20378;-48
2023/01/18 09:17:47;;;;;;;10.20;5.68;;;2.30;99.90;;;;;;5026335;28;20105;-52
2023/01/18 09:20:34;;;;;;;8.65;4.97;;;2.40;99.90;;;;;;5016877;28;20026;-51
2023/01/18 09:23:21;;;;;;;8.02;5.50;;;2.30;99.90;;;;;;5014254;28;20022;-49
2023/01/18 09:26:15;;;;;;;8.52;5.28;;;2.40;99.90;;;;;;5023202;28;20032;-52
2023/01/18 09:29:01;;;;;;;8.07;5.40;;;2.40;99.90;;;;;;5037021;28;20113;-49
2023/01/18 09:31:48;;;;;;;7.93;4.93;;;2.40;99.90;;;;;;5007748;28;20022;-48
2023/01/18 09:34:37;;;;;;;13.57;6.07;;;2.50;99.90;;;;;;5011424;28;20057;-53
2023/01/18 09:37:23;;;;;;;9.73;5.05;;;2.50;99.90;;;;;;5007792;28;20049;-48
2023/01/18 09:40:17;;;;;;;9.95;5.57;;;2.50;99.90;;;;;;5021085;28;20026;-52
2023/01/18 09:43:19;;;;;;;10.18;5.80;;;2.60;99.90;;;;;;5004493;28;20045;-52
2023/01/18 09:46:18;;;;;;;12.15;6.03;;;2.80;99.90;;;;;;5010745;28;20059;-52
2023/01/18 09:49:10;;;;;;;10.65;6.70;;;2.80;99.90;;;;;;4997115;28;20026;-50
2023/01/18 09:52:02;;;;;;;15.32;6.88;;;2.80;99.90;;;;;;4997182;28;20552;-53
2023/01/18 09:55:01;;;;;;;13.15;7.65;;;2.60;99.90;;;;;;5011441;28;20100;-49
2023/01/18 09:57:50;;;;;;;13.10;7.00;;;2.60;99.90;;;;;;5009425;28;20022;-57
2023/01/18 10:00:41;;;;;;;10.02;7.35;;;2.40;99.90;;;;;;5011425;28;20028;-56
2023/01/18 10:03:52;;;;;;;15.05;7.53;;;2.20;99.90;;;;;;5016352;28;20018;-55
2023/01/18 10:06:52;;;;;;;14.77;8.38;;;2.30;99.90;;;;;;5007170;28;20068;-53
2023/01/18 10:09:45;;;;;;;13.00;7.35;;;2.30;99.90;;;;;;5020462;28;20021;-51
2023/01/18 10:12:44;;;;;;;13.02;7.53;;;2.30;99.90;;;;;;5009596;28;20037;-52
2023/01/18 10:15:33;;;;;;;13.10;7.70;;;2.30;99.90;;;;;;5017182;28;20022;-49
2023/01/18 10:18:19;;;;;;;12.30;7.20;;;2.30;99.90;;;;;;5010215;28;20117;-52
2023/01/18 10:21:06;;;;;;;10.68;7.82;;;2.30;99.90;;;;;;5002005;28;20076;-55
2023/01/18 10:24:20;;;;;;;14.32;8.98;;;2.40;99.90;;;;;;5011731;28;20022;-58
2023/01/18 10:27:48;;;;;;;18.85;10.35;;;2.40;99.90;;;;;;5006223;28;20026;-58
2023/01/18 10:30:37;;;;;;;13.60;9.07;;;2.20;99.90;;;;;;5007618;28;20044;-54
2023/01/18 10:33:31;;;;;;;16.13;7.90;;;2.30;99.90;;;;;;5010703;28;20022;-51
2023/01/18 10:36:22;;;;;;;13.52;7.57;;;2.20;99.90;;;;;;4998583;28;20018;-51
2023/01/18 10:39:27;;;;;;;13.73;8.27;;;2.20;99.90;;;;;;5014402;28;20033;-53
2023/01/18 10:43:01;;;;;;;13.57;8.27;;;2.20;99.90;;;;;;5011550;28;20386;-48
2023/01/18 10:45:47;;;;;;;14.25;8.57;;;2.10;99.90;;;;;;4968885;28;20089;-48
2023/01/18 10:48:33;;;;;;;13.43;8.48;;;2.30;99.90;;;;;;5010394;28;20026;-49
2023/01/18 10:51:39;;;;;;;13.57;8.27;;;2.40;99.90;;;;;;5027432;28;20072;-51
2023/01/18 10:54:26;;;;;;;13.48;8.32;;;2.50;99.90;;;;;;5031084;28;20048;-51
2023/01/18 10:57:19;;;;;;;11.77;7.93;;;2.30;99.90;;;;;;5002507;28;20042;-50
2023/01/18 11:00:20;;;;;;;15.20;8.55;;;2.30;99.90;;;;;;5018691;28;20014;-53
2023/01/18 11:03:13;;;;;;;16.27;8.70;;;2.40;99.90;;;;;;5013818;28;20026;-53
2023/01/18 11:06:05;;;;;;;17.08;7.85;;;2.70;99.90;;;;;;5009813;28;20018;-55
2023/01/18 11:08:52;;;;;;;10.98;7.35;;;2.70;99.90;;;;;;4995410;28;20053;-58
2023/01/18 11:14:42;;;;;;;13.70;8.20;;;2.80;99.90;;;;;;5010599;28;20030;-53
2023/01/18 11:17:29;;;;;;;16.25;8.85;;;2.70;99.90;;;;;;5009521;28;20033;-59
2023/01/18 11:20:17;;;;;;;13.52;7.45;;;2.90;99.90;;;;;;5010765;28;20118;-56
2023/01/18 11:23:09;;;;;;;13.27;7.30;;;3.00;99.90;;;;;;5008973;28;20026;-54
2023/01/18 11:26:13;;;;;;;14.43;7.47;;;2.70;99.90;;;;;;5009428;28;20589;-53
2023/01/18 11:29:03;;;;;;;11.75;7.20;;;2.50;99.90;;;;;;5010060;28;20077;-58
2023/01/18 11:31:51;;;;;;;14.98;7.30;;;2.70;99.90;;;;;;5009726;28;20040;-57
2023/01/18 11:34:42;;;;;;;11.35;6.75;;;2.80;99.90;;;;;;5009338;28;20076;-56
2023/01/18 11:37:34;;;;;;;14.88;6.93;;;2.90;99.90;;;;;;5010870;28;20091;-55
2023/01/18 11:40:29;;;;;;;12.48;7.25;;;2.90;99.90;;;;;;4993701;28;20018;-53
2023/01/18 11:43:21;;;;;;;12.17;7.07;;;2.80;99.90;;;;;;5006565;28;20098;-51
2023/01/18 11:46:07;;;;;;;14.65;7.45;;;2.80;99.90;;;;;;5009442;28;20063;-51
2023/01/18 11:49:06;;;;;;;12.93;7.45;;;2.90;99.90;;;;;;5010155;28;20676;-56
2023/01/18 11:52:08;;;;;;;18.75;8.38;;;2.70;99.90;;;;;;5010524;28;20022;-52
2023/01/18 11:55:05;;;;;;;10.05;7.00;;;2.70;99.90;;;;;;4994653;28;20506;-54
2023/01/18 11:57:52;;;;;;;13.13;6.72;;;2.70;99.90;;;;;;5010486;28;20158;-54
2023/01/18 12:00:57;;;;;;;16.08;7.40;;;2.80;99.90;;;;;;5011403;28;20061;-57
2023/01/18 12:03:58;;;;;;;13.70;7.82;;;3.10;99.90;;;;;;5011102;28;20113;-55
2023/01/18 12:06:54;;;;;;;13.10;7.03;;;3.20;99.90;;;;;;5008236;28;20069;-56
2023/01/18 12:09:49;;;;;;;12.02;7.28;;;3.10;99.90;;;;;;5011555;28;20025;-59
2023/01/18 12:13:00;;;;;;;13.52;8.07;;;3.10;99.90;;;;;;5014596;28;20019;-58
2023/01/18 12:16:08;;;;;;;14.48;8.05;;;3.00;99.90;;;;;;5013734;28;20084;-56
2023/01/18 12:19:02;;;;;;;18.35;7.72;;;3.10;99.90;;;;;;5013894;28;20040;-54
2023/01/18 12:22:01;;;;;;;13.05;8.30;;;3.20;99.90;;;;;;5014265;28;20108;-58
2023/01/18 12:24:54;;;;;;;13.18;7.45;;;3.40;99.90;;;;;;5014043;28;20062;-54
2023/01/18 12:28:00;;;;;;;16.80;6.85;;;3.50;99.90;;;;;;5013590;28;20120;-53
2023/01/18 12:30:56;;;;;;;;;;;3.70;99.90;;;;;;5014316;28;20521;-53
2023/01/18 12:34:01;;;;;;;13.77;7.72;;;3.50;99.90;;;;;;5013638;28;19972;-51
2023/01/18 12:36:56;;;;;;;12.93;7.85;;;3.40;99.90;;;;;;5013098;28;20052;-56
2023/01/18 12:40:00;;;;;;;15.38;7.97;;;3.30;99.90;;;;;;4999735;28;20030;-53
2023/01/18 12:43:08;;;;;;;15.23;9.30;;;3.30;99.90;;;;;;5009169;28;20025;-52
2023/01/18 12:46:09;;;;;;;15.82;8.02;;;3.50;99.90;;;;;;5012588;28;20022;-58
2023/01/18 12:49:03;;;;;;;14.82;8.40;;;3.40;99.90;;;;;;5013701;28;20034;-57
2023/01/18 12:52:00;;;;;;;18.45;9.75;;;3.30;99.90;;;;;;5006148;28;20073;-50
2023/01/18 12:55:02;;;;;;;20.08;9.32;;;3.40;99.90;;;;;;5013506;28;20033;-56
2023/01/18 12:57:55;;;;;;;15.38;8.88;;;3.30;99.90;;;;;;5012912;28;20040;-51
2023/01/18 13:00:47;;;;;;;22.17;11.48;;;3.20;99.90;;;;;;5030874;28;20017;-55
2023/01/18 13:03:47;;;;;;;16.67;8.80;;;3.20;99.90;;;;;;5031170;28;20457;-55
2023/01/18 13:06:37;;;;;;;15.27;9.18;;;3.20;99.90;;;;;;5030987;28;20061;-56
2023/01/18 13:09:31;;;;;;;16.17;9.68;;;3.20;99.90;;;;;;5031697;28;20025;-56
2023/01/18 13:12:18;;;;;;;16.27;9.52;;;3.10;99.90;;;;;;5032096;28;20041;-55
2023/01/18 13:15:19;;;;;;;15.55;9.18;;;3.20;99.90;;;;;;5031253;28;20091;-55
2023/01/18 13:18:38;;;;;;;16.00;10.27;;;3.30;99.90;;;;;;4992899;28;20045;-53
2023/01/18 13:22:41;;;;;;;14.60;9.52;;;3.10;99.90;;;;;;4991225;28;20045;-56
2023/01/18 13:25:47;;;;;;;16.00;9.43;;;3.00;99.90;;;;;;4915664;28;20051;-59
2023/01/18 13:28:33;;;;;;;18.83;10.20;;;3.00;99.90;;;;;;4914317;29;20501;-54
2023/01/18 13:31:29;;;;;;;19.35;10.43;;;3.10;99.90;;;;;;4978749;28;20200;-52
2023/01/18 13:34:35;;;;;;;16.15;9.00;;;3.10;99.90;;;;;;4988950;28;20026;-55
2023/01/18 13:37:40;;;;;;;14.95;9.32;;;3.00;99.90;;;;;;4992813;28;20118;-56
2023/01/18 13:40:54;;;;;;;16.88;10.45;;;2.90;99.90;;;;;;4992795;28;20105;-53
2023/01/18 13:43:40;;;;;;;17.17;10.43;;;2.90;99.90;;;;;;5001439;28;20026;-50
2023/01/18 13:46:27;;;;;;;19.02;10.43;;;2.90;99.90;;;;;;5012116;28;20026;-53
2023/01/18 13:49:19;;;;;;;16.50;10.48;;;2.90;99.90;;;;;;5011907;28;20034;-55
2023/01/18 13:52:41;;;;;;;15.82;10.77;;;2.90;99.90;;;;;;4992442;28;20058;-56
2023/01/18 13:55:30;;;;;;;15.82;9.82;;;2.90;99.90;;;;;;4992295;28;20291;-52
2023/01/18 13:58:27;;;;;;;22.30;11.00;;;2.90;99.90;;;;;;4994885;28;20120;-51
2023/01/18 14:01:21;;;;;;;18.10;11.15;;;2.80;99.90;;;;;;5013030;28;20033;-51
2023/01/18 14:04:22;;;;;;;16.10;10.85;;;2.80;99.90;;;;;;5012509;28;20025;-56
2023/01/18 14:07:19;;;;;;;17.42;9.38;;;2.70;99.90;;;;;;5011296;28;20029;-55
2023/01/18 14:10:18;;;;;;;20.05;10.20;;;2.70;99.90;;;;;;5011517;28;20034;-57
2023/01/18 14:13:11;;;;;;;18.92;10.57;;;2.80;99.90;;;;;;5011484;28;20105;-55
2023/01/18 14:15:58;;;;;;;18.50;10.57;;;2.80;99.90;;;;;;5011861;28;20072;-55
2023/01/18 14:19:02;;;;;;;20.15;10.98;;;2.70;99.90;;;;;;5012162;28;20060;-53
2023/01/18 14:22:11;;;;;;;24.65;10.60;;;2.90;99.90;;;;;;4997111;28;20225;-58
2023/01/18 14:25:03;;;;;;;15.18;12.05;;;2.90;99.90;;;;;;5011313;28;20084;-56
2023/01/18 14:28:06;;;;;;;22.35;12.00;;;2.90;99.90;;;;;;4997057;28;20022;-56
2023/01/18 14:30:57;;;;;;;21.23;11.48;;;2.70;99.90;;;;;;5011681;28;20033;-53
2023/01/18 14:33:43;;;;;;;19.75;11.23;;;2.50;99.90;;;;;;5011878;28;20053;-55
2023/01/18 14:36:29;;;;;;;19.63;11.20;;;2.40;99.90;;;;;;4996788;28;20042;-50
2023/01/18 14:39:16;;;;;;;18.85;11.57;;;2.30;99.90;;;;;;5012206;28;20030;-51
2023/01/18 14:42:04;;;;;;;21.83;12.27;;;2.60;99.90;;;;;;5013625;28;20041;-51
2023/01/18 14:44:50;;;;;;;18.73;11.40;;;2.60;99.90;;;;;;5011100;28;20045;-54
2023/01/18 14:47:37;;;;;;;16.00;11.07;;;2.70;99.90;;;;;;4996222;28;20407;-58
2023/01/18 14:50:26;;;;;;;22.90;11.88;;;2.70;99.90;;;;;;4994646;28;20034;-57
2023/01/18 14:53:40;;;;;;;19.38;12.23;;;2.80;99.90;;;;;;5014225;28;20037;-51
2023/01/18 14:56:40;;;;;;;19.10;11.13;;;2.90;99.90;;;;;;5011384;28;20022;-53
2023/01/18 14:59:29;;;;;;;25.58;11.45;;;2.80;99.90;;;;;;5010803;28;20105;-54
2023/01/18 15:02:21;;;;;;;21.38;11.52;;;2.80;99.90;;;;;;5010040;28;20039;-52
2023/01/18 15:05:16;;;;;;;24.90;12.13;;;2.90;99.90;;;;;;5008023;28;20030;-55
2023/01/18 15:08:02;;;;;;;27.48;12.82;;;2.60;99.90;;;;;;5014115;28;20037;-56
2023/01/18 15:10:48;;;;;;;21.85;13.27;;;2.70;99.90;;;;;;5011996;28;20038;-57
2023/01/18 15:13:47;;;;;;;18.95;12.38;;;2.60;99.90;;;;;;5002465;28;20033;-53
2023/01/18 15:16:35;;;;;;;25.35;13.77;;;2.60;99.90;;;;;;5030611;28;20080;-56
2023/01/18 15:19:26;;;;;;;25.23;13.20;;;2.60;99.90;;;;;;5030055;28;20095;-53
2023/01/18 15:22:15;;;;;;;19.02;11.82;;;2.60;99.90;;;;;;5016764;28;20022;-59
2023/01/18 15:25:02;;;;;;;20.80;12.77;;;2.50;99.90;;;;;;5030520;28;20064;-52
2023/01/18 15:27:50;;;;;;;18.98;12.27;;;2.50;99.90;;;;;;5011015;28;20030;-55